createdAt,value
2019-03-21T00:00:08.586Z,79.2
2019-03-21T00:00:58.538Z,79.2
2019-03-21T00:01:48.578Z,79.2
2019-03-21T00:02:38.552Z,79.2
2019-03-21T00:03:28.665Z,79.2
2019-03-21T00:04:24.134Z,79.2
2019-03-21T00:05:18.374Z,79.2
2019-03-21T00:06:08.382Z,79.1
2019-03-21T00:06:58.397Z,79.2
2019-03-21T00:07:50.534Z,79.2
2019-03-21T00:08:40.574Z,79.3
2019-03-21T00:09:30.594Z,79.3
2019-03-21T00:10:20.582Z,79.3
2019-03-21T00:11:10.578Z,79.4
2019-03-21T00:12:00.624Z,79.3
2019-03-21T00:12:50.848Z,79.4
2019-03-21T00:13:40.577Z,79.4
2019-03-21T00:14:30.589Z,79.4
2019-03-21T00:15:20.741Z,79.4
2019-03-21T00:16:10.582Z,79.4
2019-03-21T00:17:00.760Z,79.3
2019-03-21T00:17:50.704Z,79.4
2019-03-21T00:18:40.591Z,79.4
2019-03-21T00:19:30.618Z,79.4
2019-03-21T00:20:20.619Z,79.5
2019-03-21T00:21:10.627Z,79.5
2019-03-21T00:22:00.727Z,79.6
2019-03-21T00:22:50.620Z,79.6
2019-03-21T00:23:40.556Z,79.6
2019-03-21T00:24:30.601Z,79.6
2019-03-21T00:25:20.954Z,79.6
2019-03-21T00:26:10.705Z,79.6
2019-03-21T00:27:00.631Z,79.6
2019-03-21T00:27:50.635Z,79.6
2019-03-21T00:28:40.560Z,79.7
2019-03-21T00:29:30.558Z,79.7
2019-03-21T00:30:20.603Z,79.7
2019-03-21T00:31:10.593Z,79.8
2019-03-21T00:32:00.722Z,79.8
2019-03-21T00:32:50.606Z,79.9
2019-03-21T00:33:42.303Z,80
2019-03-21T00:34:32.307Z,80.1
2019-03-21T00:35:22.304Z,80
2019-03-21T00:36:12.321Z,80.1
2019-03-21T00:37:02.310Z,80.1
2019-03-21T00:37:53.404Z,80
2019-03-21T00:38:42.411Z,80
2019-03-21T00:39:33.116Z,80
2019-03-21T00:40:22.307Z,80
2019-03-21T00:41:12.320Z,80
2019-03-21T00:42:02.390Z,80
2019-03-21T00:42:52.686Z,80
2019-03-21T00:43:42.494Z,80.1
2019-03-21T00:44:35.942Z,80.2
2019-03-21T00:45:26.002Z,80.2
2019-03-21T00:46:15.966Z,80.2
2019-03-21T00:47:05.984Z,80.2
2019-03-21T00:47:56.007Z,80.3
2019-03-21T00:48:46.005Z,80.2
2019-03-21T00:49:35.970Z,80.3
2019-03-21T00:50:25.969Z,80.3
2019-03-21T00:51:16.451Z,80.2
2019-03-21T00:52:06.255Z,80.3
2019-03-21T00:52:56.243Z,80.3
2019-03-21T00:53:46.216Z,80.2
2019-03-21T00:54:36.220Z,80.2
2019-03-21T00:55:26.499Z,80.2
2019-03-21T00:56:16.506Z,80.2
2019-03-21T00:57:06.543Z,80.2
2019-03-21T00:57:58.920Z,80.2
2019-03-21T00:58:48.819Z,80.3
2019-03-21T00:59:38.791Z,80.4
2019-03-21T01:00:28.805Z,80.4
2019-03-21T01:01:18.776Z,80.4
2019-03-21T01:02:08.865Z,80.3
2019-03-21T01:02:58.844Z,80.3
2019-03-21T01:03:48.834Z,80.4
2019-03-21T01:04:38.785Z,80.4
2019-03-21T01:05:28.784Z,80.4
2019-03-21T01:06:18.882Z,80.3
2019-03-21T01:07:08.770Z,80.5
2019-03-21T01:07:59.046Z,80.5
2019-03-21T01:08:49.051Z,80.6
2019-03-21T01:09:39.181Z,80.6
2019-03-21T01:10:29.041Z,80.6
2019-03-21T01:11:19.071Z,80.7
2019-03-21T01:12:09.022Z,80.6
2019-03-21T01:13:00.704Z,80.9
2019-03-21T01:13:50.520Z,80.7
2019-03-21T01:14:42.598Z,80.9
2019-03-21T01:15:32.473Z,81
2019-03-21T01:16:22.507Z,81.1
2019-03-21T01:17:12.513Z,81.1
2019-03-21T01:18:02.500Z,81.1
2019-03-21T01:18:52.545Z,81
2019-03-21T01:19:42.506Z,81
2019-03-21T01:20:32.529Z,81
2019-03-21T01:21:22.551Z,81
2019-03-21T01:22:13.084Z,81
2019-03-21T01:23:03.090Z,81
2019-03-21T01:23:53.276Z,81
2019-03-21T01:24:43.053Z,81.1
2019-03-21T01:25:33.064Z,81.1
2019-03-21T01:26:23.157Z,81.1
2019-03-21T01:27:13.125Z,81.1
2019-03-21T01:28:03.377Z,81.1
2019-03-21T01:28:53.398Z,81.1
2019-03-21T01:29:43.371Z,81.2
2019-03-21T01:30:33.355Z,81.2
2019-03-21T01:31:23.339Z,81.2
2019-03-21T01:32:13.337Z,81.2
2019-03-21T01:33:03.340Z,81.2
2019-03-21T01:33:53.352Z,81.3
2019-03-21T01:34:43.327Z,81.4
2019-03-21T01:35:33.388Z,81.4
2019-03-21T01:36:23.596Z,81.3
2019-03-21T01:37:13.607Z,81.3
2019-03-21T01:38:03.607Z,81.3
2019-03-21T01:38:53.569Z,81.2
2019-03-21T01:39:43.598Z,81.3
2019-03-21T01:40:33.572Z,81.3
2019-03-21T01:41:23.625Z,81.3
2019-03-21T01:42:13.611Z,81.3
2019-03-21T01:43:03.644Z,81.3
2019-03-21T01:43:53.593Z,81.3
2019-03-21T01:44:43.613Z,81.3
2019-03-21T01:45:33.584Z,81.3
2019-03-21T01:46:23.568Z,81.3
2019-03-21T01:47:13.585Z,81.3
2019-03-21T01:48:03.947Z,81.3
2019-03-21T01:48:53.701Z,81.4
2019-03-21T01:49:43.656Z,81.4
2019-03-21T01:50:33.648Z,81.4
2019-03-21T01:51:23.744Z,81.4
2019-03-21T01:52:13.633Z,81.4
2019-03-21T01:53:05.504Z,81.4
2019-03-21T01:53:54.310Z,81.5
2019-03-21T01:54:44.499Z,81.5
2019-03-21T01:55:34.385Z,81.5
2019-03-21T01:56:24.314Z,81.4
2019-03-21T01:57:14.415Z,81.4
2019-03-21T01:58:05.133Z,81.4
2019-03-21T01:58:54.532Z,81.5
2019-03-21T01:59:44.513Z,81.5
2019-03-21T02:00:34.565Z,81.5
2019-03-21T02:01:24.631Z,81.4
2019-03-21T02:02:14.672Z,81.5
2019-03-21T02:03:04.481Z,81.5
2019-03-21T02:03:54.550Z,81.5
2019-03-21T02:04:44.596Z,81.5
2019-03-21T02:05:34.546Z,81.5
2019-03-21T02:06:24.531Z,81.6
2019-03-21T02:07:14.530Z,81.6
2019-03-21T02:08:04.643Z,81.6
2019-03-21T02:08:54.506Z,81.7
2019-03-21T02:09:44.563Z,81.7
2019-03-21T02:10:34.528Z,81.7
2019-03-21T02:11:25.780Z,81.7
2019-03-21T02:12:17.611Z,81.7
2019-03-21T02:13:07.651Z,81.6
2019-03-21T02:13:57.537Z,81.7
2019-03-21T02:14:51.951Z,81.7
2019-03-21T02:15:37.550Z,81.7
2019-03-21T02:16:27.572Z,81.7
2019-03-21T02:17:17.476Z,81.7
2019-03-21T02:18:07.523Z,81.7
2019-03-21T02:18:57.648Z,81.7
2019-03-21T02:19:47.564Z,81.7
2019-03-21T02:20:37.548Z,81.7
2019-03-21T02:21:28.063Z,81.8
2019-03-21T02:22:17.512Z,81.8
2019-03-21T02:23:07.566Z,81.8
2019-03-21T02:23:57.582Z,81.9
2019-03-21T02:24:47.545Z,81.9
2019-03-21T02:25:37.561Z,81.9
2019-03-21T02:26:27.707Z,81.9
2019-03-21T02:27:17.549Z,81.9
2019-03-21T02:28:07.569Z,81.9
2019-03-21T02:28:57.812Z,81.8
2019-03-21T02:29:49.054Z,81.8
2019-03-21T02:30:39.094Z,81.8
2019-03-21T02:31:29.592Z,81.8
2019-03-21T02:32:19.044Z,81.8
2019-03-21T02:33:09.072Z,81.9
2019-03-21T02:33:59.131Z,81.9
2019-03-21T02:34:49.135Z,81.9
2019-03-21T02:35:39.085Z,81.9
2019-03-21T02:36:29.204Z,81.9
2019-03-21T02:37:19.064Z,81.9
2019-03-21T02:38:11.219Z,82
2019-03-21T02:39:01.242Z,82
2019-03-21T02:39:59.128Z,82
2019-03-21T02:40:41.267Z,82.1
2019-03-21T02:41:31.437Z,82.1
2019-03-21T02:42:21.397Z,82.1
2019-03-21T02:43:11.235Z,82.1
2019-03-21T02:44:01.242Z,82
2019-03-21T02:44:51.448Z,82
2019-03-21T02:45:42.094Z,82
2019-03-21T02:46:32.000Z,82
2019-03-21T02:47:21.956Z,82
2019-03-21T02:48:11.924Z,82.1
2019-03-21T02:49:01.995Z,82.1
2019-03-21T02:49:51.948Z,82.1
2019-03-21T02:50:41.985Z,82.1
2019-03-21T02:51:32.878Z,82.1
2019-03-21T02:52:22.184Z,82.2
2019-03-21T02:53:12.215Z,82.2
2019-03-21T02:54:02.219Z,82.3
2019-03-21T02:54:52.264Z,82.3
2019-03-21T02:55:44.974Z,82.3
2019-03-21T02:56:34.898Z,82.3
2019-03-21T02:57:24.927Z,82.3
2019-03-21T02:58:14.980Z,82.3
2019-03-21T02:59:05.267Z,82.3
2019-03-21T02:59:55.694Z,82.4
2019-03-21T03:00:45.070Z,82.4
2019-03-21T03:01:35.457Z,82.4
2019-03-21T03:02:24.983Z,82.4
2019-03-21T03:03:14.928Z,82.4
2019-03-21T03:04:05.277Z,82.3
2019-03-21T03:04:55.019Z,82.3
2019-03-21T03:05:44.953Z,82.3
2019-03-21T03:06:35.331Z,82.3
2019-03-21T03:07:24.937Z,82.2
2019-03-21T03:08:15.199Z,82.3
2019-03-21T03:09:05.163Z,82.3
2019-03-21T03:09:55.873Z,82.4
2019-03-21T03:10:45.193Z,82.4
2019-03-21T03:11:35.766Z,82.6
2019-03-21T03:12:25.216Z,82.5
2019-03-21T03:13:16.339Z,82.5
2019-03-21T03:14:06.376Z,82.6
2019-03-21T03:14:56.322Z,82.6
2019-03-21T03:15:46.350Z,82.6
2019-03-21T03:16:36.311Z,82.6
2019-03-21T03:17:26.330Z,82.5
2019-03-21T03:18:16.440Z,82.5
2019-03-21T03:19:06.303Z,82.6
2019-03-21T03:19:56.352Z,82.6
2019-03-21T03:20:46.344Z,82.7
2019-03-21T03:21:37.293Z,82.7
2019-03-21T03:22:26.348Z,82.7
2019-03-21T03:23:16.335Z,82.7
2019-03-21T03:24:06.354Z,82.6
2019-03-21T03:24:56.336Z,82.6
2019-03-21T03:25:46.453Z,82.6
2019-03-21T03:26:37.317Z,82.5
2019-03-21T03:27:26.410Z,82.4
2019-03-21T03:28:16.397Z,82.5
2019-03-21T03:29:06.395Z,82.4
2019-03-21T03:29:56.308Z,82.4
2019-03-21T03:30:46.336Z,82.4
2019-03-21T03:31:38.099Z,82.4
2019-03-21T03:32:26.344Z,82.4
2019-03-21T03:33:16.341Z,82.4
2019-03-21T03:34:06.407Z,82.4
2019-03-21T03:34:56.429Z,82.4
2019-03-21T03:35:46.389Z,82.4
2019-03-21T03:36:36.409Z,82.4
2019-03-21T03:37:26.389Z,82.5
2019-03-21T03:38:16.391Z,82.4
2019-03-21T03:39:06.384Z,82.5
2019-03-21T03:39:56.344Z,82.5
2019-03-21T03:40:46.510Z,82.5
2019-03-21T03:41:36.382Z,82.6
2019-03-21T03:42:26.449Z,82.7
2019-03-21T03:43:16.357Z,82.7
2019-03-21T03:44:06.443Z,82.7
2019-03-21T03:44:56.326Z,82.7
2019-03-21T03:45:46.370Z,82.7
2019-03-21T03:46:36.579Z,82.7
2019-03-21T03:47:26.375Z,82.7
2019-03-21T03:48:19.526Z,82.8
2019-03-21T03:49:06.442Z,82.8
2019-03-21T03:49:56.681Z,82.8
2019-03-21T03:50:46.444Z,82.8
2019-03-21T03:51:36.437Z,82.8
2019-03-21T03:52:26.663Z,82.8
2019-03-21T03:53:16.641Z,82.8
2019-03-21T03:54:06.959Z,82.8
2019-03-21T03:54:56.698Z,82.8
2019-03-21T03:55:46.749Z,82.8
2019-03-21T03:56:36.659Z,82.8
2019-03-21T03:57:26.634Z,82.9
2019-03-21T03:58:16.562Z,82.8
2019-03-21T03:59:06.673Z,82.8
2019-03-21T03:59:56.592Z,82.8
2019-03-21T04:00:46.658Z,82.8
2019-03-21T04:01:36.657Z,82.8
2019-03-21T04:02:26.681Z,82.7
2019-03-21T04:03:17.504Z,82.8
2019-03-21T04:04:07.449Z,82.8
2019-03-21T04:04:57.470Z,82.8
2019-03-21T04:05:47.477Z,82.9
2019-03-21T04:06:37.471Z,82.9
2019-03-21T04:07:27.561Z,83
2019-03-21T04:08:17.491Z,83
2019-03-21T04:09:07.456Z,83
2019-03-21T04:09:57.475Z,83
2019-03-21T04:10:47.444Z,83
2019-03-21T04:11:37.502Z,83
2019-03-21T04:12:27.444Z,83.1
2019-03-21T04:13:17.499Z,83.2
2019-03-21T04:14:07.626Z,83.3
2019-03-21T04:14:57.844Z,83.3
2019-03-21T04:15:52.880Z,83.3
2019-03-21T04:16:37.694Z,83.3
2019-03-21T04:17:27.684Z,83.3
2019-03-21T04:18:19.201Z,83.3
2019-03-21T04:19:07.953Z,83.3
2019-03-21T04:19:57.956Z,83.2
2019-03-21T04:20:47.960Z,83.2
2019-03-21T04:21:38.019Z,83.3
2019-03-21T04:22:28.032Z,83.4
2019-03-21T04:23:18.063Z,83.4
2019-03-21T04:24:08.150Z,83.4
2019-03-21T04:24:57.982Z,83.4
2019-03-21T04:25:48.194Z,83.4
2019-03-21T04:26:37.956Z,83.4
2019-03-21T04:27:27.962Z,83.4
2019-03-21T04:28:19.499Z,83.4
2019-03-21T04:29:08.047Z,83.4
2019-03-21T04:29:57.972Z,83.3
2019-03-21T04:30:48.156Z,83.3
2019-03-21T04:31:38.029Z,83.3
2019-03-21T04:32:28.032Z,83.3
2019-03-21T04:33:17.993Z,83.3
2019-03-21T04:34:08.033Z,83.3
2019-03-21T04:34:58.009Z,83.3
2019-03-21T04:35:48.669Z,83.4
2019-03-21T04:36:37.979Z,83.3
2019-03-21T04:37:27.953Z,83.3
2019-03-21T04:38:17.980Z,83.3
2019-03-21T04:39:07.972Z,83.3
2019-03-21T04:39:57.929Z,83.3
2019-03-21T04:40:50.525Z,83.3
2019-03-21T04:41:39.948Z,83.4
2019-03-21T04:42:29.915Z,83.4
2019-03-21T04:43:19.962Z,83.4
2019-03-21T04:44:09.916Z,83.3
2019-03-21T04:44:59.927Z,83.3
2019-03-21T04:45:50.672Z,83.3
2019-03-21T04:46:39.920Z,83.3
2019-03-21T04:47:29.922Z,83.3
2019-03-21T04:48:20.036Z,83.4
2019-03-21T04:49:09.902Z,83.5
2019-03-21T04:49:59.966Z,83.5
2019-03-21T04:50:50.216Z,83.4
2019-03-21T04:51:39.953Z,83.5
2019-03-21T04:52:29.915Z,83.5
2019-03-21T04:53:19.937Z,83.5
2019-03-21T04:54:09.951Z,83.5
2019-03-21T04:54:59.952Z,83.5
2019-03-21T04:55:51.330Z,83.5
2019-03-21T04:56:39.963Z,83.5
2019-03-21T04:57:29.946Z,83.5
2019-03-21T04:58:20.172Z,83.5
2019-03-21T04:59:09.950Z,83.5
2019-03-21T05:00:00.056Z,83.5
2019-03-21T05:00:49.969Z,83.6
2019-03-21T05:01:39.946Z,83.6
2019-03-21T05:02:29.939Z,83.6
2019-03-21T05:03:19.932Z,83.7
2019-03-21T05:04:10.298Z,83.8
2019-03-21T05:05:00.092Z,83.7
2019-03-21T05:05:50.074Z,83.8
2019-03-21T05:06:40.208Z,83.8
2019-03-21T05:07:29.939Z,83.8
2019-03-21T05:08:19.914Z,83.8
2019-03-21T05:09:09.976Z,83.8
2019-03-21T05:10:00.254Z,83.7
2019-03-21T05:10:49.975Z,83.7
2019-03-21T05:11:39.957Z,83.7
2019-03-21T05:12:33.247Z,83.7
2019-03-21T05:13:23.279Z,83.7
2019-03-21T05:14:13.230Z,83.7
2019-03-21T05:15:03.228Z,83.8
2019-03-21T05:15:53.376Z,83.7
2019-03-21T05:16:43.248Z,83.7
2019-03-21T05:17:33.361Z,83.7
2019-03-21T05:18:23.322Z,83.7
2019-03-21T05:19:13.266Z,83.7
2019-03-21T05:20:03.296Z,83.7
2019-03-21T05:20:53.406Z,83.7
2019-03-21T05:21:43.216Z,83.7
2019-03-21T05:22:33.263Z,83.7
2019-03-21T05:23:24.309Z,83.7
2019-03-21T05:24:14.105Z,83.7
2019-03-21T05:25:04.088Z,83.8
2019-03-21T05:25:54.105Z,83.8
2019-03-21T05:26:44.142Z,83.8
2019-03-21T05:27:34.135Z,83.9
2019-03-21T05:28:24.116Z,83.9
2019-03-21T05:29:14.166Z,83.9
2019-03-21T05:30:04.095Z,83.9
2019-03-21T05:30:54.138Z,83.9
2019-03-21T05:31:44.136Z,84
2019-03-21T05:32:34.086Z,84
2019-03-21T05:33:26.837Z,84
2019-03-21T05:34:16.870Z,84
2019-03-21T05:35:06.848Z,84.1
2019-03-21T05:35:58.968Z,84.2
2019-03-21T05:36:46.839Z,84.2
2019-03-21T05:37:36.827Z,84.1
2019-03-21T05:38:26.848Z,84.2
2019-03-21T05:39:16.850Z,84.1
2019-03-21T05:40:06.899Z,84.1
2019-03-21T05:40:56.979Z,84.1
2019-03-21T05:41:47.254Z,84.1
2019-03-21T05:42:37.192Z,84.1
2019-03-21T05:43:27.136Z,84.1
2019-03-21T05:44:17.111Z,84.1
2019-03-21T05:45:07.104Z,84
2019-03-21T05:45:57.340Z,84
2019-03-21T05:46:47.043Z,84
2019-03-21T05:47:37.100Z,84
2019-03-21T05:48:27.086Z,84
2019-03-21T05:49:17.075Z,84
2019-03-21T05:50:07.097Z,84
2019-03-21T05:50:57.075Z,84
2019-03-21T05:51:47.106Z,84
2019-03-21T05:52:37.111Z,84.1
2019-03-21T05:53:27.101Z,84.1
2019-03-21T05:54:17.091Z,84.1
2019-03-21T05:55:07.163Z,84.2
2019-03-21T05:55:57.103Z,84.2
2019-03-21T05:56:47.079Z,84.2
2019-03-21T05:57:37.150Z,84.2
2019-03-21T05:58:27.145Z,84.2
2019-03-21T05:59:17.175Z,84.2
2019-03-21T06:00:07.836Z,84.2
2019-03-21T06:00:57.164Z,84.2
2019-03-21T06:01:47.149Z,84.2
2019-03-21T06:02:37.094Z,84.2
2019-03-21T06:03:27.182Z,84.1
2019-03-21T06:04:19.461Z,84.2
2019-03-21T06:05:09.659Z,84.3
2019-03-21T06:05:59.271Z,84.4
2019-03-21T06:06:49.664Z,84.5
2019-03-21T06:07:39.894Z,84.5
2019-03-21T06:08:29.778Z,84.5
2019-03-21T06:09:21.339Z,84.5
2019-03-21T06:10:11.500Z,84.5
2019-03-21T06:11:01.245Z,84.5
2019-03-21T06:11:59.825Z,84.6
2019-03-21T06:12:41.477Z,84.7
2019-03-21T06:13:31.564Z,84.8
2019-03-21T06:14:21.519Z,84.7
2019-03-21T06:15:11.529Z,84.7
2019-03-21T06:17:56.561Z,84.6
2019-03-21T06:18:54.389Z,84.6
2019-03-21T06:19:45.732Z,84.5
2019-03-21T06:20:35.736Z,84.4
2019-03-21T06:21:29.641Z,84.4
2019-03-21T06:22:19.484Z,84.5
2019-03-21T06:23:10.151Z,84.5
2019-03-21T06:24:00.724Z,84.6
2019-03-21T06:24:50.193Z,84.7
2019-03-21T06:25:40.110Z,84.8
2019-03-21T06:26:30.132Z,85
2019-03-21T06:27:20.134Z,85.1
2019-03-21T06:28:12.288Z,85.1
2019-03-21T06:29:00.603Z,85.1
2019-03-21T06:29:50.158Z,85.1
2019-03-21T06:30:40.139Z,85.1
2019-03-21T06:31:30.129Z,85.2
2019-03-21T06:32:20.206Z,85.2
2019-03-21T06:33:10.163Z,85.4
2019-03-21T06:34:00.635Z,85.4
2019-03-21T06:34:50.117Z,85.5
2019-03-21T06:35:40.120Z,85.5
2019-03-21T06:36:30.185Z,85.6
2019-03-21T06:37:21.239Z,85.6
2019-03-21T06:38:12.457Z,85.7
2019-03-21T06:39:01.499Z,85.8
2019-03-21T06:39:51.418Z,85.8
2019-03-21T06:40:41.338Z,85.8
2019-03-21T06:41:31.313Z,85.8
2019-03-21T06:42:21.851Z,85.8
2019-03-21T06:43:11.886Z,85.9
2019-03-21T06:44:01.862Z,85.9
2019-03-21T06:44:51.821Z,86
2019-03-21T06:45:47.727Z,86.1
2019-03-21T06:46:32.373Z,86.2
2019-03-21T06:47:22.082Z,86.3
2019-03-21T06:48:11.936Z,86.3
2019-03-21T06:49:02.158Z,86.4
2019-03-21T06:49:51.863Z,86.4
2019-03-21T06:50:42.185Z,86.4
2019-03-21T06:51:32.188Z,86.5
2019-03-21T06:52:22.071Z,86.6
2019-03-21T06:53:12.531Z,86.6
2019-03-21T06:54:02.811Z,86.9
2019-03-21T06:54:52.384Z,86.9
2019-03-21T06:55:42.529Z,87
2019-03-21T06:56:32.470Z,87
2019-03-21T06:57:22.366Z,87.1
2019-03-21T06:58:12.994Z,87.1
2019-03-21T06:59:02.377Z,87.1
2019-03-21T06:59:52.333Z,87.2
2019-03-21T07:00:42.400Z,87.3
2019-03-21T07:01:32.353Z,87.4
2019-03-21T07:02:22.332Z,87.5
2019-03-21T07:03:12.367Z,87.6
2019-03-21T07:04:06.790Z,87.7
2019-03-21T07:04:52.339Z,87.7
2019-03-21T07:05:42.303Z,87.7
2019-03-21T07:06:32.420Z,87.7
2019-03-21T07:07:22.331Z,87.7
2019-03-21T07:08:14.107Z,87.8
2019-03-21T07:09:02.371Z,87.8
2019-03-21T07:09:52.333Z,87.9
2019-03-21T07:10:42.404Z,87.9
2019-03-21T07:11:32.383Z,88
2019-03-21T07:12:22.362Z,88.1
2019-03-21T07:13:12.408Z,88.1
2019-03-21T07:14:02.496Z,88.3
2019-03-21T07:14:52.392Z,88.4
2019-03-21T07:15:42.352Z,88.5
2019-03-21T07:16:32.384Z,88.5
2019-03-21T07:17:23.163Z,88.6
2019-03-21T07:18:12.838Z,88.6
2019-03-21T07:19:02.835Z,88.7
2019-03-21T07:19:53.008Z,88.7
2019-03-21T07:20:42.918Z,88.8
2019-03-21T07:21:32.833Z,88.8
2019-03-21T07:22:22.867Z,88.9
2019-03-21T07:23:12.865Z,89
2019-03-21T07:24:02.860Z,89
2019-03-21T07:24:52.863Z,89.1
2019-03-21T07:25:42.934Z,89.1
2019-03-21T07:26:32.865Z,89.2
2019-03-21T07:27:23.115Z,89.3
2019-03-21T07:28:13.126Z,89.3
2019-03-21T07:29:03.182Z,89.4
2019-03-21T07:29:53.145Z,89.4
2019-03-21T07:30:43.112Z,89.4
2019-03-21T07:31:33.143Z,89.4
2019-03-21T07:32:33.019Z,89.5
2019-03-21T07:33:13.110Z,89.5
2019-03-21T07:34:03.163Z,89.6
2019-03-21T07:34:53.285Z,89.6
2019-03-21T07:35:43.145Z,89.7
2019-03-21T07:36:33.116Z,89.7
2019-03-21T07:37:23.171Z,89.7
2019-03-21T07:38:13.155Z,89.8
2019-03-21T07:39:03.349Z,89.8
2019-03-21T07:39:53.440Z,89.9
2019-03-21T07:40:43.400Z,89.9
2019-03-21T07:41:33.358Z,90
2019-03-21T07:42:24.182Z,90
2019-03-21T07:43:13.437Z,90
2019-03-21T07:44:03.388Z,90
2019-03-21T07:44:53.440Z,90
2019-03-21T07:45:43.352Z,90
2019-03-21T07:46:33.356Z,90
2019-03-21T07:47:23.455Z,90
2019-03-21T07:48:13.374Z,90.1
2019-03-21T07:49:03.539Z,90.1
2019-03-21T07:49:53.559Z,90.1
2019-03-21T07:50:43.476Z,90.1
2019-03-21T07:51:33.390Z,90.2
2019-03-21T07:52:23.461Z,90.2
2019-03-21T07:53:13.395Z,90.2
2019-03-21T07:54:03.379Z,90.2
2019-03-21T07:54:53.637Z,90.2
2019-03-21T07:55:43.617Z,90.2
2019-03-21T07:56:33.696Z,90.2
2019-03-21T07:57:23.604Z,90.2
2019-03-21T07:58:13.677Z,90.2
2019-03-21T07:59:03.645Z,90.2
2019-03-21T07:59:53.621Z,90.2
2019-03-21T08:00:43.618Z,90.2
2019-03-21T08:01:33.657Z,90.3
2019-03-21T08:02:25.101Z,90.2
2019-03-21T08:03:13.610Z,90.3
2019-03-21T08:04:03.677Z,90.2
2019-03-21T08:04:53.665Z,90.4
2019-03-21T08:05:43.877Z,90.4
2019-03-21T08:06:33.938Z,90.3
2019-03-21T08:07:25.897Z,90.2
2019-03-21T08:08:13.855Z,90.2
2019-03-21T08:09:03.901Z,90
2019-03-21T08:09:53.983Z,90
2019-03-21T08:10:43.872Z,90
2019-03-21T08:11:33.921Z,89.9
2019-03-21T08:12:27.366Z,89.8
2019-03-21T08:13:13.889Z,89.8
2019-03-21T08:14:03.956Z,89.8
2019-03-21T08:14:53.884Z,89.9
2019-03-21T08:15:43.871Z,89.9
2019-03-21T08:16:33.898Z,89.8
2019-03-21T08:17:23.927Z,89.8
2019-03-21T08:18:13.872Z,89.7
2019-03-21T08:19:03.926Z,89.7
2019-03-21T08:19:53.896Z,89.7
2019-03-21T08:20:55.562Z,89.6
2019-03-21T08:21:33.927Z,89.6
2019-03-21T08:22:23.881Z,89.6
2019-03-21T08:23:13.912Z,89.6
2019-03-21T08:24:03.970Z,89.5
2019-03-21T08:24:53.871Z,89.3
2019-03-21T08:25:43.923Z,89.2
2019-03-21T08:26:33.934Z,89.1
2019-03-21T08:27:23.881Z,89
2019-03-21T08:28:13.962Z,88.9
2019-03-21T08:29:04.001Z,88.8
2019-03-21T08:29:53.894Z,88.6
2019-03-21T08:30:44.096Z,88.4
2019-03-21T08:31:34.195Z,88.3
2019-03-21T08:32:24.151Z,88.1
2019-03-21T08:33:14.322Z,88
2019-03-21T08:34:04.159Z,87.9
2019-03-21T08:34:54.196Z,87.9
2019-03-21T08:35:44.133Z,87.8
2019-03-21T08:36:34.151Z,87.6
2019-03-21T08:37:24.152Z,87.4
2019-03-21T08:38:14.151Z,87.1
2019-03-21T08:39:04.138Z,86.9
2019-03-21T08:39:54.290Z,86.6
2019-03-21T08:40:44.281Z,86.2
2019-03-21T08:41:34.256Z,86.2
2019-03-21T08:42:24.231Z,86.1
2019-03-21T08:43:14.157Z,86
2019-03-21T08:44:04.470Z,85.9
2019-03-21T08:44:54.381Z,85.8
2019-03-21T08:45:44.190Z,85.7
2019-03-21T08:46:34.198Z,85.5
2019-03-21T08:47:24.505Z,85.4
2019-03-21T08:48:14.393Z,85.3
2019-03-21T08:49:04.234Z,85.1
2019-03-21T08:49:54.151Z,84.6
2019-03-21T08:50:44.303Z,84.5
2019-03-21T08:51:34.176Z,84.4
2019-03-21T08:52:24.155Z,84
2019-03-21T08:53:14.138Z,83.7
2019-03-21T08:54:04.196Z,83.5
2019-03-21T08:54:54.153Z,83.4
2019-03-21T08:55:44.152Z,83.3
2019-03-21T08:56:35.545Z,83.3
2019-03-21T08:57:24.151Z,83.2
2019-03-21T08:58:14.232Z,82.7
2019-03-21T08:59:04.875Z,82.3
2019-03-21T08:59:54.770Z,81.9
2019-03-21T09:00:44.713Z,81.6
2019-03-21T09:01:34.915Z,81
2019-03-21T09:02:24.771Z,80.7
2019-03-21T09:03:14.723Z,80.7
2019-03-21T09:04:04.793Z,80.6
2019-03-21T09:04:54.744Z,80.5
2019-03-21T09:05:44.687Z,80.3
2019-03-21T09:06:35.539Z,80.1
2019-03-21T09:07:24.737Z,79.9
2019-03-21T09:08:14.733Z,79.7
2019-03-21T09:09:04.728Z,79.6
2019-03-21T09:09:54.773Z,79.6
2019-03-21T09:10:44.733Z,79.8
2019-03-21T09:11:35.164Z,79.5
2019-03-21T09:12:24.726Z,79
2019-03-21T09:13:14.762Z,79
2019-03-21T09:14:04.792Z,78.7
2019-03-21T09:14:54.730Z,78.3
2019-03-21T09:15:44.713Z,77.7
2019-03-21T09:16:36.735Z,77.3
2019-03-21T09:17:24.786Z,77
2019-03-21T09:18:14.744Z,77
2019-03-21T09:19:04.953Z,76.6
2019-03-21T09:19:54.758Z,76.2
2019-03-21T09:20:44.732Z,76
2019-03-21T09:21:36.697Z,75.8
2019-03-21T09:22:27.315Z,75.8
2019-03-21T09:23:14.754Z,75.7
2019-03-21T09:24:04.810Z,74.5
2019-03-21T09:24:54.786Z,73.9
2019-03-21T09:25:44.783Z,74.1
2019-03-21T09:26:34.749Z,73.6
2019-03-21T09:27:26.005Z,73.1
2019-03-21T09:28:15.988Z,72.9
2019-03-21T09:29:06.007Z,72.8
2019-03-21T09:29:55.984Z,73
2019-03-21T09:30:46.024Z,73.1
2019-03-21T09:31:39.072Z,72.4
2019-03-21T09:32:27.176Z,72.3
2019-03-21T09:33:18.381Z,72.3
2019-03-21T09:34:08.216Z,71.8
2019-03-21T09:34:59.879Z,71
2019-03-21T09:35:49.914Z,71.1
2019-03-21T09:36:40.194Z,71.2
2019-03-21T09:37:29.944Z,70.9
2019-03-21T09:38:19.913Z,70.1
2019-03-21T09:39:09.915Z,70.4
2019-03-21T09:39:59.945Z,70.4
2019-03-21T09:40:49.931Z,70.4
2019-03-21T09:41:40.445Z,70.6
2019-03-21T09:42:33.888Z,70.6
2019-03-21T09:43:23.912Z,70.5
2019-03-21T09:44:13.910Z,70.4
2019-03-21T09:45:03.921Z,70.4
2019-03-21T09:45:53.943Z,70.8
2019-03-21T09:46:50.626Z,70.3
2019-03-21T09:47:33.910Z,69.8
2019-03-21T09:48:23.909Z,69.9
2019-03-21T09:49:14.376Z,69.7
2019-03-21T09:50:03.940Z,69.6
2019-03-21T09:50:53.907Z,69.7
2019-03-21T09:51:43.923Z,68.5
2019-03-21T09:52:33.923Z,69
2019-03-21T09:53:23.944Z,68.9
2019-03-21T09:54:14.512Z,68.7
2019-03-21T09:55:04.903Z,68.5
2019-03-21T09:55:53.921Z,68.2
2019-03-21T09:56:45.686Z,67.9
2019-03-21T09:57:33.941Z,67.8
2019-03-21T09:58:23.955Z,67.6
2019-03-21T09:59:13.920Z,66.5
2019-03-21T10:00:03.918Z,66.9
2019-03-21T10:00:53.900Z,67.2
2019-03-21T10:01:43.899Z,67.4
2019-03-21T10:02:33.930Z,67.8
2019-03-21T10:03:24.107Z,67.8
2019-03-21T10:04:13.945Z,67.6
2019-03-21T10:05:03.954Z,67.4
2019-03-21T10:05:53.937Z,67.3
2019-03-21T10:06:44.005Z,66.6
2019-03-21T10:07:33.922Z,66.6
2019-03-21T10:08:23.916Z,66.3
2019-03-21T10:09:13.981Z,65.7
2019-03-21T10:10:03.911Z,65.6
2019-03-21T10:10:53.934Z,65.9
2019-03-21T10:11:43.924Z,65.7
2019-03-21T10:12:33.904Z,65.9
2019-03-21T10:13:23.977Z,65.3
2019-03-21T10:14:14.518Z,65.3
2019-03-21T10:15:04.233Z,65
2019-03-21T10:15:54.192Z,64.6
2019-03-21T10:16:44.703Z,64.7
2019-03-21T10:17:34.231Z,65
2019-03-21T10:18:24.183Z,64.5
2019-03-21T10:19:14.182Z,63.4
2019-03-21T10:20:04.250Z,63.4
2019-03-21T10:20:54.184Z,63.1
2019-03-21T10:21:46.414Z,63.5
2019-03-21T10:22:34.180Z,62.5
2019-03-21T10:23:24.200Z,63
2019-03-21T10:24:14.367Z,63.1
2019-03-21T10:25:04.194Z,62.2
2019-03-21T10:25:54.179Z,62.5
2019-03-21T10:26:44.195Z,61.7
2019-03-21T10:27:34.171Z,61.1
2019-03-21T10:28:24.237Z,60.3
2019-03-21T10:29:14.234Z,60.7
2019-03-21T10:30:04.233Z,60.3
2019-03-21T10:30:54.169Z,60.2
2019-03-21T10:31:44.356Z,60.7
2019-03-21T10:32:34.200Z,60.4
2019-03-21T10:33:24.214Z,60.1
2019-03-21T10:34:14.320Z,60
2019-03-21T10:35:04.255Z,59.2
2019-03-21T10:35:54.218Z,59.1
2019-03-21T10:36:44.221Z,58.3
2019-03-21T10:37:34.270Z,57.3
2019-03-21T10:38:24.212Z,55.8
2019-03-21T10:39:14.195Z,56.6
2019-03-21T10:40:04.189Z,56.6
2019-03-21T10:40:54.191Z,56.4
2019-03-21T10:41:54.159Z,56.5
2019-03-21T10:42:44.155Z,56.5
2019-03-21T10:44:46.748Z,57
2019-03-21T10:45:37.542Z,56.3
2019-03-21T10:46:27.484Z,57
2019-03-21T10:47:17.445Z,57
2019-03-21T10:48:07.429Z,56.6
2019-03-21T10:48:57.454Z,56.4
2019-03-21T10:49:49.830Z,56.6
2019-03-21T10:50:37.454Z,56.8
2019-03-21T10:51:27.604Z,56.5
2019-03-21T10:52:17.426Z,56.1
2019-03-21T10:53:07.475Z,55.1
2019-03-21T10:53:57.512Z,54.6
2019-03-21T10:54:47.770Z,54.2
2019-03-21T10:55:38.370Z,52.7
2019-03-21T10:56:28.339Z,53.3
2019-03-21T10:57:18.355Z,52.8
2019-03-21T10:58:08.429Z,53
2019-03-21T10:58:58.359Z,53.2
2019-03-21T10:59:48.314Z,52
2019-03-21T11:00:38.389Z,52.2
2019-03-21T11:01:28.619Z,53
2019-03-21T11:02:19.168Z,49.2
2019-03-21T11:03:08.843Z,50.6
2019-03-21T11:03:58.861Z,50.1
2019-03-21T11:04:48.832Z,50.6
2019-03-21T11:27:10.998Z,48.7
2019-03-21T11:28:01.018Z,48.2
2019-03-21T11:28:50.978Z,48.9
2019-03-21T11:29:41.007Z,47.6
2019-03-21T11:30:31.005Z,47.9
2019-03-21T11:31:20.987Z,48.4
2019-03-21T11:32:10.958Z,48.9
2019-03-21T11:52:17.677Z,46.7
2019-03-21T11:53:00.830Z,47.2
2019-03-21T11:53:48.175Z,47.1
2019-03-21T11:54:38.248Z,46.8
2019-03-21T11:55:28.165Z,45.1